createdAt,value
2018-11-29T00:04:12.823Z,7.05
2018-11-29T00:09:35.617Z,7.11
2018-11-29T00:14:54.357Z,7.09
2018-11-29T00:20:14.972Z,7.11
2018-11-29T00:25:33.485Z,7.14
2018-11-29T00:30:52.373Z,7.15
2018-11-29T00:36:11.062Z,7.19
2018-11-29T00:41:29.699Z,7.27
2018-11-29T00:46:48.233Z,7.31
2018-11-29T00:52:06.826Z,7.37
2018-11-29T00:57:25.348Z,7.50
2018-11-29T01:02:44.033Z,7.51
2018-11-29T01:08:02.693Z,7.52
2018-11-29T01:13:22.163Z,7.61
2018-11-29T01:18:40.766Z,7.62
2018-11-29T01:23:59.468Z,7.66
2018-11-29T01:29:18.403Z,7.68
2018-11-29T01:34:37.030Z,7.72
2018-11-29T01:39:57.118Z,7.75
2018-11-29T01:45:15.834Z,7.82
2018-11-29T01:50:34.833Z,7.82
2018-11-29T01:55:53.536Z,7.82
2018-11-29T02:01:12.138Z,7.78
2018-11-29T02:06:30.751Z,7.88
2018-11-29T02:11:49.309Z,7.90
2018-11-29T02:17:08.391Z,7.84
2018-11-29T02:22:27.165Z,7.81
2018-11-29T02:27:45.692Z,7.77
2018-11-29T02:33:04.304Z,7.72
2018-11-29T02:38:22.937Z,7.70
2018-11-29T02:43:42.153Z,7.66
2018-11-29T02:49:00.790Z,7.66
2018-11-29T02:54:20.001Z,7.66
2018-11-29T02:59:38.636Z,7.68
2018-11-29T03:04:59.497Z,7.70
2018-11-29T03:10:23.297Z,7.74
2018-11-29T03:15:41.951Z,7.77
2018-11-29T03:21:01.616Z,7.80
2018-11-29T03:26:20.171Z,7.80
2018-11-29T03:31:38.679Z,7.71
2018-11-29T03:36:58.120Z,7.72
2018-11-29T03:42:16.755Z,7.66
2018-11-29T03:47:35.556Z,7.70
2018-11-29T03:52:54.092Z,7.68
2018-11-29T03:58:13.221Z,7.64
2018-11-29T04:03:31.832Z,7.74
2018-11-29T04:08:50.770Z,7.79
2018-11-29T04:14:09.276Z,7.83
2018-11-29T04:19:28.014Z,7.78
2018-11-29T04:24:46.513Z,7.72
2018-11-29T04:30:08.337Z,7.81
2018-11-29T04:35:27.238Z,7.85
2018-11-29T04:40:45.798Z,7.90
2018-11-29T04:46:44.137Z,7.87
2018-11-29T04:52:02.693Z,7.85
2018-11-29T04:57:21.312Z,7.83
2018-11-29T05:02:39.922Z,7.77
2018-11-29T05:07:59.614Z,7.80
2018-11-29T05:13:18.153Z,7.79
2018-11-29T05:18:36.751Z,7.80
2018-11-29T05:23:56.217Z,7.83
2018-11-29T05:29:14.765Z,7.80
2018-11-29T05:34:33.570Z,7.77
2018-11-29T05:39:52.209Z,7.69
2018-11-29T05:45:11.604Z,7.71
2018-11-29T05:50:30.114Z,7.72
2018-11-29T05:55:48.690Z,7.72
2018-11-29T06:01:12.374Z,7.76
2018-11-29T06:06:30.945Z,7.68
2018-11-29T06:11:49.494Z,7.68
2018-11-29T06:17:08.713Z,7.60
2018-11-29T06:22:28.010Z,7.52
2018-11-29T06:27:46.694Z,7.45
2018-11-29T06:33:06.268Z,7.34
2018-11-29T06:38:24.803Z,7.49
2018-11-29T06:43:43.313Z,7.35
2018-11-29T06:49:02.722Z,7.28
2018-11-29T06:54:21.298Z,7.27
2018-11-29T06:59:39.860Z,7.21
2018-11-29T07:04:59.257Z,7.24
2018-11-29T07:10:22.670Z,7.26
2018-11-29T07:15:41.351Z,7.27
2018-11-29T07:21:11.007Z,7.31
2018-11-29T07:26:29.547Z,7.26
2018-11-29T07:31:48.175Z,7.26
2018-11-29T07:37:07.237Z,7.30
2018-11-29T07:42:26.386Z,7.30
2018-11-29T07:47:45.486Z,7.32
2018-11-29T07:53:04.051Z,7.34
2018-11-29T07:58:23.316Z,7.35
2018-11-29T08:03:42.130Z,7.45
2018-11-29T08:09:00.662Z,7.51
2018-11-29T08:14:19.191Z,7.61
2018-11-29T08:19:37.731Z,7.67
2018-11-29T08:24:56.312Z,7.80
2018-11-29T08:30:15.686Z,7.91
2018-11-29T08:35:34.161Z,7.99
2018-11-29T08:40:52.746Z,8.14
2018-11-29T08:46:11.368Z,8.18
2018-11-29T08:51:29.968Z,8.29
2018-11-29T08:56:48.540Z,8.39
2018-11-29T09:02:07.106Z,8.43
2018-11-29T09:07:25.617Z,8.52
2018-11-29T09:12:44.122Z,8.65
2018-11-29T09:18:02.636Z,8.65
2018-11-29T09:23:21.217Z,8.74
2018-11-29T09:28:39.718Z,8.77
2018-11-29T09:33:58.292Z,8.81
2018-11-29T09:39:16.850Z,8.81
2018-11-29T09:44:35.376Z,8.89
2018-11-29T09:49:53.912Z,8.86
2018-11-29T09:55:17.273Z,8.86
2018-11-29T10:00:35.866Z,8.84
2018-11-29T10:05:54.357Z,8.69
2018-11-29T10:11:12.981Z,8.59
2018-11-29T10:16:31.542Z,8.59
2018-11-29T10:21:50.082Z,8.59
2018-11-29T10:27:08.630Z,8.65
2018-11-29T10:32:27.111Z,8.71
2018-11-29T10:37:45.620Z,8.76
2018-11-29T10:43:04.736Z,8.85
2018-11-29T10:48:24.410Z,8.88
2018-11-29T10:53:43.030Z,8.91
2018-11-29T10:59:01.569Z,8.97
2018-11-29T11:04:20.078Z,8.88
2018-11-29T11:09:39.425Z,8.85
2018-11-29T11:14:57.917Z,8.85
2018-11-29T11:20:16.590Z,8.85
2018-11-29T11:25:35.214Z,8.85
2018-11-29T11:30:54.653Z,8.81
2018-11-29T11:36:13.175Z,8.79
2018-11-29T11:41:32.245Z,8.85
2018-11-29T11:46:50.742Z,8.83
2018-11-29T11:52:09.447Z,8.73
2018-11-29T11:57:27.836Z,8.60
2018-11-29T12:02:47.000Z,8.56
2018-11-29T12:08:05.700Z,8.47
2018-11-29T12:13:25.591Z,8.35
2018-11-29T12:18:45.461Z,8.22
2018-11-29T12:24:04.041Z,8.10
2018-11-29T12:29:22.571Z,7.98
2018-11-29T12:34:41.221Z,8.04
2018-11-29T12:39:59.826Z,8.07
2018-11-29T12:45:18.472Z,7.99
2018-11-29T12:50:38.715Z,8.05
2018-11-29T12:55:57.340Z,8.05
2018-11-29T13:01:16.509Z,8.15
2018-11-29T13:06:35.098Z,8.23
2018-11-29T13:11:53.748Z,8.35
2018-11-29T13:17:12.219Z,8.37
2018-11-29T13:22:30.761Z,8.44
2018-11-29T13:27:49.360Z,8.53
2018-11-29T13:33:09.328Z,8.54
2018-11-29T13:38:27.862Z,8.56
2018-11-29T13:43:47.006Z,8.55
2018-11-29T13:49:06.031Z,8.50
2018-11-29T13:54:24.600Z,8.40
2018-11-29T13:59:43.190Z,8.34
2018-11-29T14:05:01.711Z,8.34
2018-11-29T14:10:22.344Z,8.52
2018-11-29T14:15:40.858Z,8.51
2018-11-29T14:20:59.395Z,8.59
2018-11-29T14:26:17.960Z,8.61
2018-11-29T14:31:36.534Z,8.61
2018-11-29T14:36:55.124Z,8.68
2018-11-29T14:42:13.653Z,8.79
2018-11-29T14:47:32.228Z,8.86
2018-11-29T14:52:50.798Z,8.83
2018-11-29T14:58:11.725Z,8.93
2018-11-29T15:03:30.278Z,9.02
2018-11-29T15:08:48.904Z,9.05
2018-11-29T15:14:07.459Z,8.93
2018-11-29T15:19:26.028Z,8.96
2018-11-29T15:24:44.559Z,8.89
2018-11-29T15:30:05.042Z,8.85
2018-11-29T15:35:23.679Z,8.80
2018-11-29T15:40:42.220Z,8.75
2018-11-29T15:46:01.482Z,8.72
2018-11-29T15:51:19.991Z,8.68
2018-11-29T15:56:38.555Z,8.70
2018-11-29T16:01:57.093Z,8.74
2018-11-29T16:07:16.382Z,8.76
2018-11-29T16:12:34.972Z,8.78
2018-11-29T16:17:53.851Z,8.72
2018-11-29T16:23:13.206Z,8.62
2018-11-29T16:28:31.785Z,8.61
2018-11-29T16:33:50.253Z,8.54
2018-11-29T16:39:08.904Z,8.44
2018-11-29T16:44:28.313Z,8.42
2018-11-29T16:49:46.926Z,8.44
2018-11-29T16:55:08.037Z,8.50
2018-11-29T17:00:26.624Z,8.51
2018-11-29T17:05:45.164Z,8.64
2018-11-29T17:11:03.714Z,8.65
2018-11-29T17:16:22.316Z,8.58
2018-11-29T17:21:41.209Z,8.50
2018-11-29T17:26:59.887Z,8.51
2018-11-29T17:32:18.427Z,8.50
2018-11-29T17:37:37.064Z,8.46
2018-11-29T17:42:56.388Z,8.48
2018-11-29T17:48:14.976Z,8.43
2018-11-29T17:53:34.809Z,8.40
2018-11-29T17:58:53.425Z,8.33
2018-11-29T18:04:12.043Z,8.32
2018-11-29T18:09:30.562Z,8.28
2018-11-29T18:14:49.123Z,8.25
2018-11-29T18:20:09.924Z,8.08
2018-11-29T18:25:29.405Z,8.14
2018-11-29T18:30:47.902Z,8.05
2018-11-29T18:36:07.193Z,7.98
2018-11-29T18:41:25.955Z,7.99
2018-11-29T18:46:44.542Z,8.03
2018-11-29T18:52:03.046Z,8.15
2018-11-29T18:57:21.621Z,8.30
2018-11-29T19:02:40.200Z,8.32
2018-11-29T19:07:58.705Z,8.41
2018-11-29T19:13:17.355Z,8.46
2018-11-29T19:18:36.138Z,8.51
2018-11-29T19:23:54.679Z,8.63
2018-11-29T19:29:13.746Z,8.66
2018-11-29T19:34:32.298Z,8.58
2018-11-29T19:39:50.936Z,8.54
2018-11-29T19:45:12.010Z,8.52
2018-11-29T19:50:31.439Z,8.59
2018-11-29T19:55:51.537Z,8.59
2018-11-29T20:01:10.350Z,8.58
2018-11-29T20:06:29.847Z,8.61
2018-11-29T20:11:48.379Z,8.64
2018-11-29T20:17:07.162Z,8.68
2018-11-29T20:22:26.509Z,8.72
2018-11-29T20:27:45.338Z,8.72
2018-11-29T20:33:03.884Z,8.75
2018-11-29T20:38:22.361Z,8.73
2018-11-29T20:43:40.942Z,8.79
2018-11-29T20:48:59.588Z,8.76
2018-11-29T20:54:18.339Z,8.61
2018-11-29T20:59:37.106Z,8.66
2018-11-29T21:04:56.463Z,8.58
2018-11-29T21:10:21.792Z,8.56
2018-11-29T21:15:41.809Z,8.49
2018-11-29T21:21:00.394Z,8.45
2018-11-29T21:26:18.999Z,8.35
2018-11-29T21:31:39.025Z,8.46
2018-11-29T21:36:58.297Z,8.32
2018-11-29T21:42:16.801Z,8.30
2018-11-29T21:47:35.353Z,8.25
2018-11-29T21:52:53.876Z,8.31
2018-11-29T21:58:13.182Z,8.35
2018-11-29T22:03:31.692Z,8.40
2018-11-29T22:08:50.981Z,8.45
2018-11-29T22:14:09.513Z,8.41
2018-11-29T22:19:27.993Z,8.47
2018-11-29T22:24:46.557Z,8.60
2018-11-29T22:30:07.227Z,8.64
2018-11-29T22:35:25.743Z,8.61
2018-11-29T22:40:45.068Z,8.68
2018-11-29T22:46:03.737Z,8.83
2018-11-29T22:51:22.253Z,8.83
2018-11-29T22:56:41.403Z,8.90
2018-11-29T23:01:59.901Z,8.80
2018-11-29T23:07:18.583Z,8.76
2018-11-29T23:12:37.154Z,8.75
2018-11-29T23:17:55.698Z,8.77
2018-11-29T23:23:14.912Z,8.82
2018-11-29T23:28:33.937Z,8.75
2018-11-29T23:33:52.489Z,8.64
2018-11-29T23:39:11.078Z,8.74
2018-11-29T23:44:29.670Z,8.69
2018-11-29T23:49:48.245Z,8.77
2018-11-29T23:55:08.753Z,8.71
